createdAt,value
2022-12-03T07:47:00.972Z,38.92
2022-12-03T07:49:28.708Z,32.63
2022-12-03T07:54:24.865Z,33.80
2022-12-03T07:56:56.562Z,35.75
2022-12-03T07:59:27.629Z,36.00
2022-12-03T08:01:55.128Z,36.58
2022-12-03T08:04:22.879Z,33.70
2022-12-03T08:06:50.574Z,37.67
2022-12-03T08:09:17.989Z,32.65
2022-12-03T08:11:49.463Z,30.77
2022-12-03T08:14:19.950Z,34.28
2022-12-03T08:16:48.778Z,34.50
2022-12-03T08:19:18.128Z,35.25
2022-12-03T08:21:45.602Z,33.90
2022-12-03T08:29:11.846Z,34.38
2022-12-03T08:31:40.036Z,34.50
2022-12-03T08:34:22.279Z,32.47
2022-12-03T08:36:56.203Z,30.58
2022-12-03T08:39:49.621Z,31.52
2022-12-03T08:42:41.895Z,34.28
2022-12-03T08:45:28.343Z,36.38
2022-12-03T08:48:00.553Z,35.03
2022-12-03T08:50:31.142Z,35.38
2022-12-03T08:53:20.882Z,39.90
2022-12-03T08:55:53.107Z,32.95
2022-12-03T08:58:38.885Z,33.05
2022-12-03T09:01:12.185Z,32.92
2022-12-03T09:03:49.503Z,31.88
2022-12-03T09:08:44.438Z,36.00
2022-12-03T09:13:39.297Z,36.58
2022-12-03T09:16:07.395Z,33.95
2022-12-03T09:18:35.016Z,33.95
2022-12-03T09:21:02.541Z,34.53
2022-12-03T09:25:57.152Z,38.00
2022-12-03T09:33:19.408Z,36.40
2022-12-03T09:35:46.907Z,34.55
2022-12-03T09:38:14.312Z,38.58
2022-12-03T09:40:42.432Z,37.40
2022-12-03T09:43:11.032Z,38.20
2022-12-03T09:45:38.843Z,37.60
2022-12-03T09:48:06.524Z,34.50
2022-12-03T09:50:34.310Z,36.28
2022-12-03T09:53:03.891Z,33.17
2022-12-03T09:55:31.922Z,39.15
2022-12-03T09:58:00.800Z,33.47
2022-12-03T10:00:30.523Z,38.40
2022-12-03T10:03:02.206Z,36.95
2022-12-03T10:05:30.095Z,34.42
2022-12-03T10:08:06.253Z,35.85
2022-12-03T10:10:35.463Z,36.20
2022-12-03T10:13:04.148Z,34.40
2022-12-03T10:15:32.243Z,36.17
2022-12-03T10:18:01.486Z,36.65
2022-12-03T10:20:28.972Z,33.70
2022-12-03T10:30:29.057Z,37.30
2022-12-03T10:32:58.606Z,33.42
2022-12-03T10:35:51.476Z,37.42
2022-12-03T10:38:19.421Z,34.15
2022-12-03T10:40:46.949Z,40.00
2022-12-03T10:43:20.272Z,38.08
2022-12-03T10:45:48.869Z,36.22
2022-12-03T10:48:17.776Z,35.17
2022-12-03T10:50:56.576Z,50.15
2022-12-03T10:53:28.546Z,49.53
2022-12-03T10:55:59.796Z,42.40
2022-12-03T10:58:29.703Z,36.95
2022-12-03T11:00:58.696Z,34.58
2022-12-03T11:03:28.912Z,34.38
2022-12-03T11:05:57.906Z,39.70
2022-12-03T11:08:27.925Z,34.05
2022-12-03T11:10:58.735Z,32.05
2022-12-03T11:13:44.609Z,31.58
2022-12-03T11:16:13.403Z,34.50
2022-12-03T11:18:40.781Z,34.80
2022-12-03T11:21:12.104Z,31.45
2022-12-03T11:23:45.606Z,31.63
2022-12-03T11:26:18.613Z,33.30
2022-12-03T11:28:46.826Z,31.50
2022-12-03T11:31:36.343Z,30.65
2022-12-03T11:34:17.205Z,31.65
2022-12-03T11:37:12.368Z,32.65
2022-12-03T11:39:52.871Z,32.95
2022-12-03T11:42:27.356Z,31.70
2022-12-03T11:45:05.408Z,30.02
2022-12-03T11:47:39.687Z,34.55
2022-12-03T11:50:40.181Z,28.80
2022-12-03T11:53:07.903Z,30.10
2022-12-03T11:55:40.925Z,31.90
2022-12-03T11:58:29.964Z,36.47
2022-12-03T12:01:00.435Z,26.83
2022-12-03T12:03:33.494Z,31.85
2022-12-03T12:06:09.778Z,29.15
2022-12-03T12:08:39.917Z,29.40
2022-12-03T12:11:21.162Z,32.45
2022-12-03T12:14:02.831Z,30.90
2022-12-03T12:16:52.823Z,28.10
2022-12-03T12:19:33.625Z,31.33
2022-12-03T12:22:25.283Z,30.58
2022-12-03T12:24:56.477Z,28.52
2022-12-03T12:27:45.162Z,27.48
2022-12-03T12:30:21.729Z,30.95
2022-12-03T12:32:53.591Z,29.20
2022-12-03T12:35:21.137Z,27.40
2022-12-03T12:40:32.951Z,26.50
2022-12-03T12:43:25.049Z,28.45
2022-12-03T12:45:55.269Z,26.27
2022-12-03T12:48:24.812Z,29.98
2022-12-03T12:51:11.350Z,27.75
2022-12-03T12:53:42.653Z,29.92
2022-12-03T12:56:27.744Z,29.35
2022-12-03T12:58:59.432Z,29.75
2022-12-03T13:01:30.057Z,28.40
2022-12-03T13:03:59.670Z,32.33
2022-12-03T13:06:30.339Z,30.70
2022-12-03T13:09:01.315Z,25.98
2022-12-03T13:11:51.878Z,30.17
2022-12-03T13:14:24.010Z,28.63
2022-12-03T13:16:54.958Z,28.42
2022-12-03T13:19:25.086Z,29.58
2022-12-03T13:21:54.312Z,30.48
2022-12-03T13:24:40.705Z,32.10
2022-12-03T13:27:13.867Z,29.13
2022-12-03T13:29:41.386Z,32.28
2022-12-03T13:34:42.876Z,27.85
2022-12-03T13:37:20.986Z,32.50
2022-12-03T13:39:50.976Z,29.75
2022-12-03T13:42:46.096Z,26.50
2022-12-03T13:45:15.920Z,29.95
2022-12-03T13:47:55.235Z,28.83
2022-12-03T13:50:31.413Z,30.75
2022-12-03T13:53:01.097Z,28.30
2022-12-03T13:55:31.166Z,31.52
2022-12-03T13:57:58.836Z,28.80
2022-12-03T14:00:26.361Z,30.40
2022-12-03T14:02:54.009Z,33.08
2022-12-03T14:05:22.493Z,27.58
2022-12-03T14:07:50.206Z,29.13
2022-12-03T14:10:17.802Z,28.60
2022-12-03T14:22:38.165Z,30.55
2022-12-03T14:25:07.134Z,29.25
2022-12-03T14:27:35.169Z,28.63
2022-12-03T14:30:02.788Z,32.05
2022-12-03T14:32:30.433Z,30.95
2022-12-03T14:34:57.962Z,28.27
2022-12-03T14:37:25.511Z,30.05
2022-12-03T14:42:21.187Z,28.50
2022-12-03T14:44:52.389Z,29.58
2022-12-03T14:47:24.986Z,26.80
2022-12-03T14:49:53.187Z,31.30
2022-12-03T14:52:20.838Z,28.35
2022-12-03T14:57:16.517Z,30.00
2022-12-03T14:59:44.870Z,32.50
2022-12-03T15:02:13.217Z,29.95
2022-12-03T15:04:41.337Z,30.80
2022-12-03T15:07:09.602Z,27.27
2022-12-03T15:09:37.179Z,26.60
2022-12-03T15:14:32.097Z,30.48
2022-12-03T15:16:59.554Z,28.80
2022-12-03T15:26:53.586Z,29.52
2022-12-03T15:29:21.225Z,29.38
2022-12-03T15:34:21.822Z,27.95
2022-12-03T15:36:50.598Z,28.00
2022-12-03T15:39:18.089Z,27.92
2022-12-03T15:49:07.130Z,28.08
2022-12-03T15:51:34.622Z,29.52
2022-12-03T15:54:02.154Z,28.00
2022-12-03T15:58:56.830Z,29.17
2022-12-03T16:03:52.117Z,33.47
2022-12-03T16:08:48.180Z,29.88
2022-12-03T16:11:16.039Z,27.55
2022-12-03T16:13:43.571Z,26.70
2022-12-03T16:23:32.604Z,27.08
2022-12-03T16:26:00.225Z,32.35
2022-12-03T16:35:55.317Z,27.50
2022-12-03T16:38:22.738Z,28.60
2022-12-03T16:43:17.684Z,28.33
2022-12-03T16:48:48.828Z,28.58
2022-12-03T16:51:17.071Z,27.85
2022-12-03T16:53:45.124Z,28.02
2022-12-03T16:56:12.559Z,30.38
2022-12-03T17:01:07.684Z,25.17
2022-12-03T17:03:35.380Z,25.40
2022-12-03T17:08:31.033Z,24.67
2022-12-03T17:10:58.543Z,29.20
2022-12-03T17:13:25.957Z,32.63
2022-12-03T17:15:53.400Z,32.05
2022-12-03T17:20:57.091Z,29.00
2022-12-03T17:23:24.686Z,26.90
2022-12-03T17:33:14.116Z,27.38
2022-12-03T17:38:09.760Z,26.52
2022-12-03T17:40:37.198Z,27.08
2022-12-03T17:47:59.134Z,26.55
2022-12-03T17:50:26.928Z,27.02
2022-12-03T17:52:54.410Z,31.33
2022-12-03T17:58:04.261Z,26.88
2022-12-03T18:00:33.285Z,29.02
2022-12-03T18:03:00.874Z,27.77
2022-12-03T18:10:22.877Z,25.60
2022-12-03T18:17:44.982Z,28.35
2022-12-03T18:20:12.576Z,30.25
2022-12-03T18:22:40.217Z,30.33
2022-12-03T18:25:08.115Z,31.23
2022-12-03T18:27:35.651Z,30.52
2022-12-03T18:32:30.663Z,30.63
2022-12-03T18:37:32.363Z,30.40
2022-12-03T18:40:00.522Z,30.20
2022-12-03T18:42:28.071Z,32.22
2022-12-03T18:47:27.724Z,30.63
2022-12-03T18:49:56.359Z,31.92
2022-12-03T18:52:25.198Z,29.90
2022-12-03T18:54:54.519Z,32.10
2022-12-03T18:57:22.011Z,30.10
2022-12-03T18:59:49.671Z,34.08
2022-12-03T19:05:09.742Z,30.60
2022-12-03T19:07:37.804Z,30.13
2022-12-03T19:10:05.961Z,32.20
2022-12-03T19:12:33.780Z,30.52
2022-12-03T19:15:01.558Z,29.05
2022-12-03T19:17:28.956Z,31.00
2022-12-03T19:22:24.462Z,28.95
2022-12-03T19:24:52.102Z,32.45
2022-12-03T19:27:19.572Z,29.98
2022-12-03T19:32:17.545Z,30.88
2022-12-03T19:37:12.283Z,34.20
2022-12-03T19:44:34.441Z,34.95
2022-12-03T19:56:52.042Z,36.10
2022-12-03T19:59:19.402Z,32.30
2022-12-03T20:04:14.362Z,33.53
2022-12-03T20:11:42.703Z,36.83
2022-12-03T20:14:15.371Z,31.95
2022-12-03T20:16:44.060Z,35.47
2022-12-03T20:19:14.024Z,36.40
2022-12-03T20:21:42.926Z,34.10
2022-12-03T20:24:14.568Z,34.53
2022-12-03T20:26:42.472Z,36.17
2022-12-03T20:29:09.837Z,36.53
2022-12-03T20:31:37.458Z,39.20
2022-12-03T20:36:33.044Z,37.67
2022-12-03T20:39:03.013Z,31.63
2022-12-03T20:41:30.897Z,33.22
2022-12-03T20:43:58.318Z,37.38
2022-12-03T20:48:55.523Z,35.40
2022-12-03T20:51:26.388Z,36.92
2022-12-03T20:53:54.189Z,38.13
2022-12-03T20:56:26.020Z,35.55
2022-12-03T20:58:53.832Z,33.90
2022-12-03T21:01:24.385Z,34.22
2022-12-03T21:03:53.970Z,39.03
2022-12-03T21:06:22.496Z,35.03
2022-12-03T21:08:52.243Z,33.55
2022-12-03T21:11:24.181Z,35.17
2022-12-03T21:13:52.568Z,35.83
2022-12-03T21:16:45.693Z,34.55
2022-12-03T21:19:11.135Z,34.88
2022-12-03T21:21:38.589Z,33.63
2022-12-03T21:26:33.437Z,34.53
2022-12-03T21:31:28.265Z,34.50
2022-12-03T21:33:56.846Z,33.65
2022-12-03T21:36:25.397Z,35.53
2022-12-03T21:38:53.314Z,32.00
2022-12-03T21:41:20.762Z,33.80
2022-12-03T21:47:10.409Z,33.42
2022-12-03T21:49:04.875Z,34.25
2022-12-03T21:56:26.798Z,32.28
2022-12-03T22:01:24.510Z,30.08
2022-12-03T22:03:52.090Z,32.45
2022-12-03T22:06:20.411Z,32.90
2022-12-03T22:08:48.294Z,32.90
2022-12-03T22:11:21.510Z,34.28
2022-12-03T22:13:49.345Z,32.67
2022-12-03T22:16:19.764Z,35.05
2022-12-03T22:18:48.021Z,30.55
2022-12-03T22:21:18.306Z,32.22
2022-12-03T22:23:46.429Z,30.73
2022-12-03T22:26:16.460Z,31.20
2022-12-03T22:28:48.669Z,35.17
2022-12-03T22:31:18.295Z,29.55
2022-12-03T22:33:48.494Z,32.00
2022-12-03T22:36:20.885Z,33.28
2022-12-03T22:38:50.471Z,31.83
2022-12-03T22:41:19.176Z,30.58
2022-12-03T22:43:47.635Z,31.20
2022-12-03T22:46:15.954Z,30.92
2022-12-03T22:48:47.932Z,30.55
2022-12-03T22:51:18.540Z,33.15
2022-12-03T22:53:49.250Z,31.35
2022-12-03T22:56:21.766Z,32.75
2022-12-03T22:58:50.701Z,32.05
2022-12-03T23:01:28.009Z,31.52
2022-12-03T23:03:55.776Z,30.50
2022-12-03T23:06:24.207Z,31.33
2022-12-03T23:08:52.505Z,32.25
2022-12-03T23:11:20.198Z,32.35
2022-12-03T23:13:48.537Z,34.38
2022-12-03T23:16:18.999Z,31.48
2022-12-03T23:18:46.628Z,32.55
2022-12-03T23:21:23.921Z,30.05
2022-12-03T23:23:54.817Z,34.10
2022-12-03T23:26:22.243Z,32.03
2022-12-03T23:28:49.858Z,33.05
2022-12-03T23:33:53.373Z,27.08
2022-12-03T23:36:22.330Z,27.33
2022-12-03T23:38:49.945Z,32.97
2022-12-03T23:43:46.829Z,32.42
2022-12-03T23:46:17.892Z,30.55
2022-12-03T23:48:46.044Z,28.63
2022-12-03T23:51:16.306Z,30.02
2022-12-03T23:53:44.989Z,30.25
2022-12-03T23:56:15.998Z,28.70
2022-12-03T23:58:44.530Z,29.40
